V Red Knot — DUGA — position and weather

sailwx.info

Track history (hours):
 
Tides and Currents Weather Stations Pressure Air Temp Water Temp Dewpoint Dewpoint Depression Visibility Wind Speed Wind Dir Waves Ship Positions

V Red Knot

Last reported at 2017-Sep-19 07:50 UTC. Time now 2017-Sep-23 07:43 UTC.
Position N 25°47' W 079°29'.

Length 177 m; draft 9.9 m.

Type: Cargo ship. MMSI: 548891000.

Date/timePositionNaut miles runAvg speedWind from/ knotsBaromVisibWave heightAir tempDewpointWater temp
2017-Sep-19 07:50N 25°47' W 079°29'  
2017-Sep-09 20:18N 38°57' W 031°29'712.8
2017-Sep-09 19:44N 38°59' W 031°20'312.8
2017-Sep-09 19:30N 39°00' W 031°17'612.2
2017-Sep-09 19:00N 39°02' W 031°09'612.4
2017-Sep-09 18:30N 39°03' W 031°01'712.6
2017-Sep-09 17:58N 39°05' W 030°53'3312.3
2017-Sep-09 15:16N 39°14' W 030°12'312.2
2017-Sep-09 15:00N 39°15' W 030°08'612.5
2017-Sep-09 14:30N 39°17' W 030°00'612.2
2017-Sep-09 14:00N 39°19' W 029°53'612.5
2017-Sep-09 13:30N 39°20' W 029°45'612.3
2017-Sep-09 13:01N 39°22' W 029°37'612.7
2017-Sep-09 12:30N 39°24' W 029°29'612.7
2017-Sep-09 12:00N 39°26' W 029°22'612.4
2017-Sep-09 11:30N 39°27' W 029°14'612.0
2017-Sep-09 11:00N 39°29' W 029°06'612.3
2017-Sep-09 10:30N 39°31' W 028°59'612.7
2017-Sep-09 10:00N 39°32' W 028°51'612.7
2017-Sep-09 09:30N 39°34' W 028°43'612.8
2017-Sep-09 09:00N 39°36' W 028°35'613.0
2017-Sep-09 08:31N 39°38' W 028°27'612.8
2017-Sep-09 08:00N 39°39' W 028°19'  
Track history (hours):
 
Tides and Currents Weather Stations Pressure Air Temp Water Temp Dewpoint Dewpoint Depression Visibility Wind Speed Wind Dir Waves Ship Positions

V Red Knot

Last reported at 2017-Sep-19 07:50 UTC. Time now 2017-Sep-23 07:43 UTC.
Position N 25°47' W 079°29'.

Length 177 m; draft 9.9 m.

Type: Cargo ship. MMSI: 548891000.

Date/timePositionNaut miles runAvg speedWind from/ knotsBaromVisibWave heightAir tempDewpointWater temp
2017-Sep-19 07:50N 25°47' W 079°29'  
2017-Sep-09 20:18N 38°57' W 031°29'712.8
2017-Sep-09 19:44N 38°59' W 031°20'312.8
2017-Sep-09 19:30N 39°00' W 031°17'612.2
2017-Sep-09 19:00N 39°02' W 031°09'612.4
2017-Sep-09 18:30N 39°03' W 031°01'712.6
2017-Sep-09 17:58N 39°05' W 030°53'3312.3
2017-Sep-09 15:16N 39°14' W 030°12'312.2
2017-Sep-09 15:00N 39°15' W 030°08'612.5
2017-Sep-09 14:30N 39°17' W 030°00'612.2
2017-Sep-09 14:00N 39°19' W 029°53'612.5
2017-Sep-09 13:30N 39°20' W 029°45'612.3
2017-Sep-09 13:01N 39°22' W 029°37'612.7
2017-Sep-09 12:30N 39°24' W 029°29'612.7
2017-Sep-09 12:00N 39°26' W 029°22'612.4
2017-Sep-09 11:30N 39°27' W 029°14'612.0
2017-Sep-09 11:00N 39°29' W 029°06'612.3
2017-Sep-09 10:30N 39°31' W 028°59'612.7
2017-Sep-09 10:00N 39°32' W 028°51'612.7
2017-Sep-09 09:30N 39°34' W 028°43'612.8
2017-Sep-09 09:00N 39°36' W 028°35'613.0
2017-Sep-09 08:31N 39°38' W 028°27'612.8
2017-Sep-09 08:00N 39°39' W 028°19'  

Dump ship's entire track history